createdAt,value
2017-09-05T00:00:05.318Z,21.7
2017-09-05T00:02:05.524Z,21.7
2017-09-05T00:04:04.762Z,21.7
2017-09-05T00:06:05.552Z,21.7
2017-09-05T00:08:05.298Z,21.7
2017-09-05T00:10:08.271Z,21.6
2017-09-05T00:12:04.943Z,21.6
2017-09-05T00:14:04.595Z,21.6
2017-09-05T00:16:05.462Z,21.6
2017-09-05T00:18:05.414Z,21.6
2017-09-05T00:20:05.111Z,21.6
2017-09-05T00:22:05.031Z,21.6
2017-09-05T00:24:14.836Z,21.6
2017-09-05T00:26:05.647Z,21.6
2017-09-05T00:28:07.980Z,21.6
2017-09-05T00:30:04.639Z,21.6
2017-09-05T00:32:05.344Z,21.6
2017-09-05T00:34:05.108Z,21.7
2017-09-05T00:36:05.332Z,21.6
2017-09-05T00:38:05.078Z,21.6
2017-09-05T00:40:04.942Z,21.6
2017-09-05T00:42:04.679Z,21.6
2017-09-05T00:44:07.902Z,21.6
2017-09-05T00:46:05.698Z,21.6
2017-09-05T00:48:10.561Z,21.6
2017-09-05T00:50:07.823Z,21.6
2017-09-05T00:52:05.718Z,21.6
2017-09-05T00:54:05.646Z,21.6
2017-09-05T00:56:05.338Z,21.6
2017-09-05T00:58:05.308Z,21.6
2017-09-05T01:00:05.022Z,21.6
2017-09-05T01:02:04.754Z,21.6
2017-09-05T01:04:05.059Z,21.6
2017-09-05T01:06:07.455Z,21.6
2017-09-05T01:08:05.158Z,21.6
2017-09-05T01:10:05.000Z,21.6
2017-09-05T01:12:05.275Z,21.6
2017-09-05T01:14:04.980Z,21.6
2017-09-05T01:16:04.754Z,21.6
2017-09-05T01:18:07.209Z,21.6
2017-09-05T01:20:04.912Z,21.6
2017-09-05T01:22:04.733Z,21.6
2017-09-05T01:24:07.992Z,21.6
2017-09-05T01:26:04.868Z,21.6
2017-09-05T01:28:05.735Z,21.6
2017-09-05T01:30:13.067Z,21.5
2017-09-05T01:32:04.867Z,21.6
2017-09-05T01:34:05.774Z,21.6
2017-09-05T01:36:10.617Z,21.6
2017-09-05T01:38:04.844Z,21.6
2017-09-05T01:40:05.646Z,21.6
2017-09-05T01:42:05.472Z,21.6
2017-09-05T01:44:05.202Z,21.6
2017-09-05T01:46:05.011Z,21.6
2017-09-05T01:48:04.728Z,21.6
2017-09-05T01:50:05.451Z,21.5
2017-09-05T01:52:05.182Z,21.6
2017-09-05T01:54:07.482Z,21.5
2017-09-05T01:56:07.728Z,21.6
2017-09-05T01:58:05.551Z,21.6
2017-09-05T02:00:05.252Z,21.6
2017-09-05T02:02:05.207Z,21.5
2017-09-05T02:04:05.124Z,21.5
2017-09-05T02:06:04.912Z,21.5
2017-09-05T02:08:05.566Z,21.5
2017-09-05T02:10:05.383Z,21.5
2017-09-05T02:12:05.051Z,21.5
2017-09-05T02:14:04.924Z,21.5
2017-09-05T02:16:07.357Z,21.5
2017-09-05T02:18:05.284Z,21.5
2017-09-05T02:20:05.092Z,21.5
2017-09-05T02:22:04.942Z,21.5
2017-09-05T02:24:07.123Z,21.5
2017-09-05T02:26:04.860Z,21.5
2017-09-05T02:28:04.868Z,21.5
2017-09-05T02:30:05.586Z,21.6
2017-09-05T02:32:04.866Z,21.5
2017-09-05T02:34:05.390Z,21.5
2017-09-05T02:36:04.659Z,21.5
2017-09-05T02:38:05.416Z,21.5
2017-09-05T02:40:07.264Z,21.5
2017-09-05T02:42:05.112Z,21.5
2017-09-05T02:44:04.837Z,21.5
2017-09-05T02:46:05.718Z,21.5
2017-09-05T02:48:07.990Z,21.5
2017-09-05T02:50:04.710Z,21.5
2017-09-05T02:52:05.630Z,21.5
2017-09-05T02:54:05.338Z,21.5
2017-09-05T02:56:05.602Z,21.5
2017-09-05T02:58:05.519Z,21.5
2017-09-05T03:00:04.743Z,21.5
2017-09-05T03:02:05.122Z,21.5
2017-09-05T03:04:05.022Z,21.5
2017-09-05T03:06:04.765Z,21.5
2017-09-05T03:08:05.469Z,21.5
2017-09-05T03:10:07.768Z,21.5
2017-09-05T03:12:05.456Z,21.5
2017-09-05T03:14:05.170Z,21.5
2017-09-05T03:16:05.039Z,21.5
2017-09-05T03:18:05.025Z,21.5
2017-09-05T03:20:04.759Z,21.5
2017-09-05T03:22:05.598Z,21.5
2017-09-05T03:24:05.387Z,21.5
2017-09-05T03:26:05.175Z,21.5
2017-09-05T03:28:13.119Z,21.5
2017-09-05T03:30:04.838Z,21.5
2017-09-05T03:32:05.095Z,21.5
2017-09-05T03:34:05.169Z,21.5
2017-09-05T03:36:04.908Z,21.5
2017-09-05T03:38:04.636Z,21.5
2017-09-05T03:40:05.567Z,21.5
2017-09-05T03:42:07.820Z,21.5
2017-09-05T03:44:10.589Z,21.5
2017-09-05T03:46:05.339Z,21.5
2017-09-05T03:48:08.091Z,21.5
2017-09-05T03:50:04.942Z,21.5
2017-09-05T03:52:04.802Z,21.5
2017-09-05T03:54:08.102Z,21.5
2017-09-05T03:56:07.895Z,21.5
2017-09-05T03:58:07.326Z,21.5
2017-09-05T04:00:05.029Z,21.4
2017-09-05T04:02:04.800Z,21.5
2017-09-05T04:04:05.548Z,21.5
2017-09-05T04:06:05.321Z,21.4
2017-09-05T04:08:12.212Z,21.5
2017-09-05T04:10:05.096Z,21.5
2017-09-05T04:12:05.394Z,21.5
2017-09-05T04:14:08.203Z,21.5
2017-09-05T04:16:05.093Z,21.5
2017-09-05T04:18:10.633Z,21.4
2017-09-05T04:20:05.351Z,21.5
2017-09-05T04:22:05.129Z,21.4
2017-09-05T04:24:07.890Z,21.5
2017-09-05T04:26:09.693Z,21.4
2017-09-05T04:28:05.539Z,21.4
2017-09-05T04:30:07.789Z,21.4
2017-09-05T04:32:08.087Z,21.4
2017-09-05T04:34:05.477Z,21.4
2017-09-05T04:36:05.230Z,21.5
2017-09-05T04:38:04.968Z,21.5
2017-09-05T04:40:04.872Z,21.5
2017-09-05T04:42:05.624Z,21.5
2017-09-05T04:44:05.338Z,21.5
2017-09-05T04:46:05.039Z,21.4
2017-09-05T04:48:04.748Z,21.5
2017-09-05T04:50:04.983Z,21.5
2017-09-05T04:52:07.283Z,21.5
2017-09-05T04:54:08.315Z,21.5
2017-09-05T04:56:04.840Z,21.5
2017-09-05T04:58:05.730Z,21.5
2017-09-05T05:00:05.429Z,21.5
2017-09-05T05:02:04.710Z,21.5
2017-09-05T05:04:05.631Z,21.5
2017-09-05T05:06:05.298Z,21.5
2017-09-05T05:08:05.076Z,21.5
2017-09-05T05:10:04.883Z,21.5
2017-09-05T05:12:04.611Z,21.5
2017-09-05T05:14:05.287Z,21.5
2017-09-05T05:16:07.811Z,21.5
2017-09-05T05:18:07.275Z,21.4
2017-09-05T05:20:05.562Z,21.4
2017-09-05T05:22:05.479Z,21.4
2017-09-05T05:24:05.235Z,21.4
2017-09-05T05:26:08.269Z,21.4
2017-09-05T05:28:05.565Z,21.4
2017-09-05T05:30:07.973Z,21.3
2017-09-05T05:32:04.734Z,21.4
2017-09-05T05:34:05.485Z,21.3
2017-09-05T05:36:04.783Z,21.4
2017-09-05T05:38:08.106Z,21.4
2017-09-05T05:40:04.949Z,21.4
2017-09-05T05:42:04.638Z,21.4
2017-09-05T05:44:05.366Z,21.3
2017-09-05T05:46:05.621Z,21.4
2017-09-05T05:48:10.392Z,21.3
2017-09-05T05:50:07.690Z,21.3
2017-09-05T05:52:05.624Z,21.3
2017-09-05T05:54:05.359Z,21.3
2017-09-05T05:56:07.592Z,21.4
2017-09-05T05:58:05.622Z,21.3
2017-09-05T06:00:05.330Z,21.4
2017-09-05T06:02:05.608Z,21.4
2017-09-05T06:04:05.545Z,21.4
2017-09-05T06:06:05.236Z,21.4
2017-09-05T06:08:04.959Z,21.4
2017-09-05T06:10:04.848Z,21.5
2017-09-05T06:12:05.050Z,21.5
2017-09-05T06:14:04.932Z,21.5
2017-09-05T06:16:10.041Z,21.5
2017-09-05T06:18:12.610Z,21.5
2017-09-05T06:20:05.364Z,21.5
2017-09-05T06:22:05.250Z,21.6
2017-09-05T06:24:08.358Z,21.6
2017-09-05T06:26:05.053Z,21.6
2017-09-05T06:28:05.441Z,21.6
2017-09-05T06:30:05.306Z,21.6
2017-09-05T06:32:05.054Z,21.6
2017-09-05T06:34:07.888Z,21.6
2017-09-05T06:36:05.671Z,21.6
2017-09-05T06:38:10.402Z,21.6
2017-09-05T06:40:07.776Z,21.6
2017-09-05T06:42:05.471Z,21.6
2017-09-05T06:44:07.705Z,21.7
2017-09-05T06:46:05.564Z,21.7
2017-09-05T06:48:05.315Z,21.7
2017-09-05T06:50:05.022Z,21.7
2017-09-05T06:52:04.830Z,21.8
2017-09-05T06:54:04.769Z,21.8
2017-09-05T06:56:05.065Z,21.8
2017-09-05T06:58:04.852Z,21.9
2017-09-05T07:00:08.026Z,21.9
2017-09-05T07:02:05.422Z,21.9
2017-09-05T07:04:05.153Z,21.9
2017-09-05T07:06:04.981Z,21.9
2017-09-05T07:08:05.264Z,22
2017-09-05T07:10:07.668Z,22
2017-09-05T07:12:05.425Z,22
2017-09-05T07:14:27.380Z,22.1
2017-09-05T07:16:05.256Z,22.1
2017-09-05T07:18:05.322Z,22.1
2017-09-05T07:20:05.631Z,22.1
2017-09-05T07:22:05.501Z,22.2
2017-09-05T07:24:05.208Z,22.2
2017-09-05T07:26:04.939Z,22.2
2017-09-05T07:28:07.319Z,22.3
2017-09-05T07:30:05.031Z,22.3
2017-09-05T07:32:05.312Z,22.4
2017-09-05T07:34:05.176Z,22.4
2017-09-05T07:36:04.988Z,22.4
2017-09-05T07:38:04.721Z,22.5
2017-09-05T07:40:05.595Z,22.5
2017-09-05T07:42:05.413Z,22.5
2017-09-05T07:44:05.228Z,22.5
2017-09-05T07:46:05.105Z,22.6
2017-09-05T07:48:04.869Z,22.6
2017-09-05T07:50:09.791Z,22.7
2017-09-05T07:52:05.555Z,22.7
2017-09-05T07:54:05.260Z,22.7
2017-09-05T07:56:15.077Z,22.8
2017-09-05T07:58:04.933Z,22.8
2017-09-05T08:00:04.623Z,22.8
2017-09-05T08:02:07.873Z,22.9
2017-09-05T08:04:05.586Z,22.9
2017-09-05T08:06:07.551Z,22.9
2017-09-05T08:08:05.253Z,22.9
2017-09-05T08:10:07.624Z,23
2017-09-05T08:12:12.915Z,23
2017-09-05T08:14:04.835Z,23
2017-09-05T08:16:05.250Z,23
2017-09-05T08:18:05.377Z,23.1
2017-09-05T08:20:04.636Z,23.1
2017-09-05T08:22:08.047Z,23.1
2017-09-05T08:24:04.783Z,23.2
2017-09-05T08:26:08.098Z,23.2
2017-09-05T08:28:04.807Z,23.2
2017-09-05T08:30:05.505Z,23.2
2017-09-05T08:32:05.284Z,23.3
2017-09-05T08:34:07.767Z,23.3
2017-09-05T08:36:07.971Z,23.4
2017-09-05T08:38:04.708Z,23.4
2017-09-05T08:40:15.345Z,23.4
2017-09-05T08:42:08.153Z,23.5
2017-09-05T08:44:04.837Z,23.5
2017-09-05T08:46:05.820Z,23.5
2017-09-05T08:48:05.543Z,23.5
2017-09-05T08:50:05.279Z,23.6
2017-09-05T08:52:12.642Z,23.6
2017-09-05T08:54:05.506Z,23.6
2017-09-05T08:56:07.836Z,23.7
2017-09-05T08:58:12.759Z,23.7
2017-09-05T09:00:07.989Z,23.7
2017-09-05T09:02:04.732Z,23.7
2017-09-05T09:04:08.096Z,23.7
2017-09-05T09:06:07.337Z,23.7
2017-09-05T09:08:05.040Z,23.7
2017-09-05T09:10:07.414Z,23.8
2017-09-05T09:12:04.646Z,23.8
2017-09-05T09:14:10.395Z,23.8
2017-09-05T09:16:05.607Z,23.8
2017-09-05T09:18:05.495Z,23.8
2017-09-05T09:20:05.202Z,23.7
2017-09-05T09:22:07.514Z,23.7
2017-09-05T09:24:04.728Z,23.7
2017-09-05T09:26:05.555Z,23.7
2017-09-05T09:28:05.383Z,23.7
2017-09-05T09:30:07.620Z,23.6
2017-09-05T09:32:05.356Z,23.6
2017-09-05T09:34:05.109Z,23.7
2017-09-05T09:36:04.842Z,23.7
2017-09-05T09:38:05.649Z,23.7
2017-09-05T09:40:04.882Z,23.7
2017-09-05T09:42:05.748Z,23.7
2017-09-05T09:44:07.958Z,23.8
2017-09-05T09:46:04.836Z,23.8
2017-09-05T09:48:05.539Z,23.8
2017-09-05T09:50:04.728Z,23.8
2017-09-05T09:52:07.972Z,23.9
2017-09-05T09:54:05.212Z,23.9
2017-09-05T09:56:12.998Z,23.9
2017-09-05T09:58:07.199Z,23.8
2017-09-05T10:00:05.415Z,23.9
2017-09-05T10:02:10.138Z,23.8
2017-09-05T10:04:04.913Z,23.8
2017-09-05T10:06:05.133Z,23.8
2017-09-05T10:08:04.843Z,23.8
2017-09-05T10:10:05.531Z,23.7
2017-09-05T10:12:05.206Z,23.7
2017-09-05T10:14:05.185Z,23.7
2017-09-05T10:16:08.036Z,23.7
2017-09-05T10:18:04.963Z,23.6
2017-09-05T10:20:04.680Z,23.6
2017-09-05T10:22:05.544Z,23.6
2017-09-05T10:24:07.789Z,23.6
2017-09-05T10:26:05.557Z,22.7
2017-09-05T10:28:12.973Z,23.5
2017-09-05T10:30:04.868Z,23.5
2017-09-05T10:32:05.618Z,23.5
2017-09-05T10:34:10.531Z,23.5
2017-09-05T10:36:05.221Z,23.5
2017-09-05T10:38:05.515Z,23.5
2017-09-05T10:40:05.360Z,23.5
2017-09-05T10:42:05.066Z,23.5
2017-09-05T10:44:04.781Z,23.5
2017-09-05T10:46:05.656Z,23.5
2017-09-05T10:48:05.462Z,23.5
2017-09-05T10:50:07.741Z,23.4
2017-09-05T10:52:05.634Z,23.4
2017-09-05T10:54:08.091Z,23.4
2017-09-05T10:56:04.778Z,23.4
2017-09-05T10:58:05.526Z,23.4
2017-09-05T11:00:05.212Z,23.4
2017-09-05T11:02:05.151Z,23.4
2017-09-05T11:04:04.890Z,23.4
2017-09-05T11:06:05.124Z,23.4
2017-09-05T11:08:04.905Z,23.3
2017-09-05T11:10:04.790Z,23.4
2017-09-05T11:12:05.484Z,23.4
2017-09-05T11:14:05.191Z,23.4
2017-09-05T11:16:05.625Z,23.4
2017-09-05T11:18:06.543Z,23.4
2017-09-05T11:20:07.974Z,23.4
2017-09-05T11:22:04.816Z,23.4
2017-09-05T11:24:08.105Z,23.4
2017-09-05T11:26:07.583Z,23.4
2017-09-05T11:28:05.421Z,23.4
2017-09-05T11:30:07.634Z,23.4
2017-09-05T11:32:10.380Z,23.4
2017-09-05T11:34:04.780Z,23.4
2017-09-05T11:36:05.514Z,23.4
2017-09-05T11:38:10.539Z,23.4
2017-09-05T11:40:04.701Z,23.4
2017-09-05T11:42:05.527Z,23.4
2017-09-05T11:44:07.849Z,23.3
2017-09-05T11:46:07.710Z,23.3
2017-09-05T11:48:04.961Z,23.3
2017-09-05T11:50:04.746Z,23.3
2017-09-05T11:52:04.773Z,23.3
2017-09-05T11:54:05.528Z,23.3
2017-09-05T11:56:04.901Z,23.3
2017-09-05T11:58:05.322Z,23.3
2017-09-05T12:00:05.021Z,23.3
2017-09-05T12:02:05.786Z,23.3
2017-09-05T12:04:05.164Z,23.3
2017-09-05T12:06:05.298Z,23.3
2017-09-05T12:08:07.531Z,23.2
2017-09-05T12:10:05.673Z,23.2
2017-09-05T12:12:07.917Z,23.2
2017-09-05T12:14:04.679Z,23.2
2017-09-05T12:16:07.529Z,23.2
2017-09-05T12:18:05.485Z,23.2
2017-09-05T12:20:05.276Z,23.2
2017-09-05T12:22:05.400Z,23.2
2017-09-05T12:24:05.131Z,23.2
2017-09-05T12:26:04.645Z,23.2
2017-09-05T12:28:23.204Z,23.2
2017-09-05T12:30:05.561Z,23.2
2017-09-05T12:32:05.279Z,23.2
2017-09-05T12:34:07.638Z,23.1
2017-09-05T12:36:05.381Z,23.1
2017-09-05T12:38:05.309Z,23.2
2017-09-05T12:40:05.298Z,23.2
2017-09-05T12:42:05.986Z,23.2
2017-09-05T12:44:04.682Z,23.2
2017-09-05T12:46:05.454Z,23.2
2017-09-05T12:48:07.660Z,23.2
2017-09-05T12:50:05.389Z,23.2
2017-09-05T12:52:05.165Z,23.1
2017-09-05T12:54:05.392Z,23.1
2017-09-05T12:56:07.695Z,23.1
2017-09-05T12:58:05.541Z,23.1
2017-09-05T13:00:07.830Z,23.1
2017-09-05T13:02:05.550Z,23.1
2017-09-05T13:04:05.429Z,23.1
2017-09-05T13:06:09.803Z,23.1
2017-09-05T13:08:07.627Z,23.1
2017-09-05T13:10:05.226Z,23.1
2017-09-05T13:12:05.144Z,23.1
2017-09-05T13:14:07.387Z,23.1
2017-09-05T13:16:05.252Z,23.1
2017-09-05T13:18:07.925Z,23.2
2017-09-05T13:20:04.619Z,23.1
2017-09-05T13:22:10.484Z,23.1
2017-09-05T13:24:05.201Z,23.1
2017-09-05T13:26:05.149Z,23.1
2017-09-05T13:28:05.431Z,23.2
2017-09-05T13:30:05.139Z,23.1
2017-09-05T13:32:05.266Z,23.1
2017-09-05T13:34:05.132Z,23.1
2017-09-05T13:36:04.883Z,23.1
2017-09-05T13:38:05.307Z,23.1
2017-09-05T13:40:04.744Z,23.1
2017-09-05T13:42:05.576Z,23.1
2017-09-05T13:44:07.489Z,23.2
2017-09-05T13:46:05.557Z,23.1
2017-09-05T13:48:07.807Z,23.1
2017-09-05T13:50:07.222Z,23.2
2017-09-05T13:52:10.333Z,23.1
2017-09-05T13:54:05.055Z,23.1
2017-09-05T13:56:05.229Z,23.1
2017-09-05T13:58:06.382Z,23.1
2017-09-05T14:00:05.631Z,23.2
2017-09-05T14:02:05.351Z,23.1
2017-09-05T14:04:05.309Z,23.1
2017-09-05T14:06:04.988Z,23.2
2017-09-05T14:08:04.740Z,23.2
2017-09-05T14:10:10.673Z,23.2
2017-09-05T14:12:07.910Z,23.2
2017-09-05T14:14:07.269Z,23.1
2017-09-05T14:16:06.328Z,23.2
2017-09-05T14:18:06.344Z,23.2
2017-09-05T14:20:07.519Z,23.1
2017-09-05T14:22:05.388Z,23.2
2017-09-05T14:24:05.122Z,23.1
2017-09-05T14:26:05.959Z,23.1
2017-09-05T14:28:10.030Z,23.2
2017-09-05T14:30:12.714Z,23.2
2017-09-05T14:32:04.723Z,23.2
2017-09-05T14:34:05.618Z,23.2
2017-09-05T14:36:05.416Z,23.2
2017-09-05T14:38:04.668Z,23.2
2017-09-05T14:40:05.135Z,23.2
2017-09-05T14:42:09.912Z,23.2
2017-09-05T14:44:05.683Z,23.2
2017-09-05T14:46:08.123Z,23.2
2017-09-05T14:48:07.539Z,23.3
2017-09-05T14:50:04.993Z,23.3
2017-09-05T14:52:07.639Z,23.3
2017-09-05T14:54:05.113Z,23.3
2017-09-05T14:56:07.849Z,23.3
2017-09-05T14:58:05.634Z,23.2
2017-09-05T15:00:05.037Z,23.2
2017-09-05T15:02:04.921Z,23.2
2017-09-05T15:04:05.762Z,23.2
2017-09-05T15:06:10.087Z,23.2
2017-09-05T15:08:04.773Z,23.2
2017-09-05T15:10:05.375Z,23.2
2017-09-05T15:12:05.638Z,23.2
2017-09-05T15:14:05.622Z,23.2
2017-09-05T15:16:05.348Z,23.2
2017-09-05T15:18:05.780Z,23.2
2017-09-05T15:20:05.499Z,23.2
2017-09-05T15:22:05.426Z,23.2
2017-09-05T15:24:05.403Z,23.2
2017-09-05T15:26:04.669Z,23.3
2017-09-05T15:28:05.555Z,23.2
2017-09-05T15:30:05.240Z,23.3
2017-09-05T15:32:05.435Z,23.3
2017-09-05T15:34:05.297Z,23.3
2017-09-05T15:36:05.043Z,23.3
2017-09-05T15:38:04.700Z,23.3
2017-09-05T15:40:05.408Z,23.3
2017-09-05T15:42:07.640Z,23.3
2017-09-05T15:44:05.380Z,23.3
2017-09-05T15:46:07.911Z,23.3
2017-09-05T15:48:08.114Z,23.3
2017-09-05T15:50:04.931Z,23.3
2017-09-05T15:52:04.622Z,23.3
2017-09-05T15:54:05.353Z,23.3
2017-09-05T15:56:10.065Z,23.3
2017-09-05T15:58:05.769Z,23.3
2017-09-05T16:00:05.527Z,23.3
2017-09-05T16:02:05.449Z,23.3
2017-09-05T16:04:04.872Z,23.3
2017-09-05T16:06:05.640Z,23.3
2017-09-05T16:08:05.320Z,23.3
2017-09-05T16:10:05.028Z,23.2
2017-09-05T16:12:04.731Z,23.2
2017-09-05T16:14:04.912Z,23.2
2017-09-05T16:16:04.794Z,23.2
2017-09-05T16:18:04.677Z,23.2
2017-09-05T16:20:05.332Z,23.2
2017-09-05T16:22:05.827Z,23.2
2017-09-05T16:24:08.093Z,23.2
2017-09-05T16:26:07.917Z,23.2
2017-09-05T16:28:05.759Z,23.2
2017-09-05T16:30:10.074Z,23.2
2017-09-05T16:32:04.844Z,23.2
2017-09-05T16:34:05.768Z,23.2
2017-09-05T16:36:05.484Z,23.2
2017-09-05T16:38:05.349Z,23.2
2017-09-05T16:40:05.071Z,23.3
2017-09-05T16:42:04.793Z,23.2
2017-09-05T16:44:05.480Z,23.2
2017-09-05T16:46:05.333Z,23.2
2017-09-05T16:48:05.281Z,23.2
2017-09-05T16:50:04.977Z,23.2
2017-09-05T16:52:05.409Z,23.3
2017-09-05T16:54:05.226Z,23.2
2017-09-05T16:56:04.886Z,23.2
2017-09-05T16:58:05.257Z,23.2
2017-09-05T17:00:05.020Z,23.2
2017-09-05T17:02:04.690Z,23.2
2017-09-05T17:04:08.108Z,23.2
2017-09-05T17:06:06.354Z,23.2
2017-09-05T17:08:05.082Z,23.2
2017-09-05T17:10:05.484Z,23.2
2017-09-05T17:12:07.108Z,23.2
2017-09-05T17:14:04.794Z,23.2
2017-09-05T17:16:05.521Z,23.2
2017-09-05T17:18:04.822Z,23.2
2017-09-05T17:20:04.674Z,23.2
2017-09-05T17:22:05.559Z,23.2
2017-09-05T17:24:05.337Z,23.2
2017-09-05T17:26:04.679Z,23.2
2017-09-05T17:28:05.238Z,23.2
2017-09-05T17:30:07.913Z,23.1
2017-09-05T17:32:07.272Z,23.1
2017-09-05T17:34:05.205Z,23.1
2017-09-05T17:36:04.975Z,23.2
2017-09-05T17:38:07.410Z,23.1
2017-09-05T17:40:10.266Z,23.1
2017-09-05T17:42:05.152Z,23.1
2017-09-05T17:44:05.438Z,23.1
2017-09-05T17:46:05.418Z,23.1
2017-09-05T17:48:05.087Z,23.1
2017-09-05T17:50:04.812Z,23.1
2017-09-05T17:52:05.259Z,23.1
2017-09-05T17:54:05.974Z,23.1
2017-09-05T17:56:05.445Z,23.1
2017-09-05T17:58:10.406Z,23
2017-09-05T18:00:05.321Z,23.1
2017-09-05T18:02:04.729Z,23.1
2017-09-05T18:04:10.018Z,23.1
2017-09-05T18:06:04.738Z,23.1
2017-09-05T18:08:05.002Z,23.1
2017-09-05T18:10:04.718Z,23.1
2017-09-05T18:12:05.475Z,23.1
2017-09-05T18:14:05.311Z,23.1
2017-09-05T18:16:05.113Z,23.1
2017-09-05T18:18:05.038Z,23.1
2017-09-05T18:20:04.978Z,23.1
2017-09-05T18:22:04.729Z,23.1
2017-09-05T18:24:05.600Z,23.1
2017-09-05T18:26:05.268Z,23.1
2017-09-05T18:28:05.079Z,23.1
2017-09-05T18:30:05.424Z,23.1
2017-09-05T18:32:05.133Z,23.1
2017-09-05T18:34:06.279Z,23.1
2017-09-05T18:36:05.020Z,23.1
2017-09-05T18:38:07.537Z,23.1
2017-09-05T18:40:04.882Z,23.1
2017-09-05T18:42:05.665Z,23.1
2017-09-05T18:44:07.875Z,23.2
2017-09-05T18:46:05.696Z,23.1
2017-09-05T18:48:05.436Z,23.2
2017-09-05T18:50:07.728Z,23.1
2017-09-05T18:52:05.632Z,23.1
2017-09-05T18:54:05.363Z,23.1
2017-09-05T18:56:07.593Z,23.1
2017-09-05T18:58:07.946Z,23.2
2017-09-05T19:00:07.326Z,23.2
2017-09-05T19:02:07.554Z,23.2
2017-09-05T19:04:04.982Z,23.2
2017-09-05T19:06:04.715Z,23.2
2017-09-05T19:08:05.021Z,23.2
2017-09-05T19:10:04.930Z,23.2
2017-09-05T19:12:04.708Z,23.3
2017-09-05T19:14:08.042Z,23.2
2017-09-05T19:16:07.853Z,23.2
2017-09-05T19:18:12.493Z,23.2
2017-09-05T19:20:05.229Z,23.2
2017-09-05T19:22:05.088Z,23.2
2017-09-05T19:24:07.606Z,23.2
2017-09-05T19:26:05.297Z,23.2
2017-09-05T19:28:10.361Z,23.2
2017-09-05T19:30:04.620Z,23.2
2017-09-05T19:32:04.907Z,23.2
2017-09-05T19:34:05.729Z,23.2
2017-09-05T19:36:05.500Z,23.2
2017-09-05T19:38:05.239Z,23.2
2017-09-05T19:40:07.667Z,23.2
2017-09-05T19:42:08.117Z,23.2
2017-09-05T19:44:04.846Z,23.2
2017-09-05T19:46:05.592Z,23.1
2017-09-05T19:48:07.804Z,23.1
2017-09-05T19:50:08.197Z,23.1
2017-09-05T19:52:09.945Z,23.2
2017-09-05T19:54:05.883Z,23.1
2017-09-05T19:56:05.165Z,23.1
2017-09-05T19:58:04.947Z,23.2
2017-09-05T20:00:04.668Z,23.1
2017-09-05T20:02:07.433Z,23.1
2017-09-05T20:04:05.132Z,23.1
2017-09-05T20:06:05.253Z,23.2
2017-09-05T20:08:07.580Z,23.2
2017-09-05T20:10:06.542Z,23.1
2017-09-05T20:12:05.430Z,23.2
2017-09-05T20:14:11.200Z,23.1
2017-09-05T20:16:09.953Z,23.1
2017-09-05T20:18:05.549Z,23.1
2017-09-05T20:20:13.806Z,23.1
2017-09-05T20:22:10.182Z,23.1
2017-09-05T20:24:04.994Z,23.1
2017-09-05T20:26:05.182Z,23.2
2017-09-05T20:28:04.902Z,23.1
2017-09-05T20:30:05.684Z,23.2
2017-09-05T20:32:04.899Z,23.2
2017-09-05T20:34:09.857Z,23.2
2017-09-05T20:36:05.588Z,23.1
2017-09-05T20:38:07.977Z,23.1
2017-09-05T20:40:04.692Z,23.1
2017-09-05T20:42:05.349Z,23.1
2017-09-05T20:44:10.156Z,23.1
2017-09-05T20:46:07.422Z,23.1
2017-09-05T20:48:05.155Z,23.1
2017-09-05T20:50:04.879Z,23.1
2017-09-05T20:52:05.616Z,23.1
2017-09-05T20:54:05.505Z,23.1
2017-09-05T20:56:07.782Z,23.1
2017-09-05T20:58:05.092Z,23.1
2017-09-05T21:00:04.753Z,23.1
2017-09-05T21:02:05.455Z,23.1
2017-09-05T21:04:05.151Z,23.1
2017-09-05T21:06:04.881Z,23.1
2017-09-05T21:08:15.753Z,23
2017-09-05T21:10:05.557Z,23
2017-09-05T21:12:05.261Z,23.1
2017-09-05T21:14:07.493Z,23.1
2017-09-05T21:16:04.758Z,23
2017-09-05T21:18:06.170Z,23.1
2017-09-05T21:20:04.966Z,23
2017-09-05T21:22:07.214Z,23
2017-09-05T21:24:04.893Z,23
2017-09-05T21:26:05.528Z,23
2017-09-05T21:28:05.220Z,23
2017-09-05T21:30:08.005Z,23
2017-09-05T21:32:04.691Z,23
2017-09-05T21:34:05.376Z,23
2017-09-05T21:36:05.073Z,23
2017-09-05T21:38:04.749Z,23
2017-09-05T21:40:05.458Z,23
2017-09-05T21:42:10.401Z,23
2017-09-05T21:44:07.678Z,23
2017-09-05T21:46:05.351Z,23
2017-09-05T21:48:05.096Z,23
2017-09-05T21:50:04.765Z,23
2017-09-05T21:52:07.544Z,23
2017-09-05T21:54:04.776Z,23
2017-09-05T21:56:05.499Z,23
2017-09-05T21:58:05.300Z,23
2017-09-05T22:00:08.032Z,23
2017-09-05T22:02:05.366Z,23
2017-09-05T22:04:05.180Z,23
2017-09-05T22:06:04.843Z,22.9
2017-09-05T22:08:05.034Z,23
2017-09-05T22:10:04.790Z,22.9
2017-09-05T22:12:05.660Z,22.9
2017-09-05T22:14:08.112Z,22.9
2017-09-05T22:16:05.053Z,22.9
2017-09-05T22:18:05.129Z,22.9
2017-09-05T22:20:06.399Z,22.9
2017-09-05T22:22:05.403Z,22.9
2017-09-05T22:24:07.650Z,22.9
2017-09-05T22:26:04.798Z,22.9
2017-09-05T22:28:15.600Z,22.9
2017-09-05T22:30:04.965Z,22.9
2017-09-05T22:32:09.909Z,22.9
2017-09-05T22:34:05.582Z,22.9
2017-09-05T22:36:05.333Z,22.9
2017-09-05T22:38:05.089Z,22.9
2017-09-05T22:40:04.792Z,22.9
2017-09-05T22:42:05.526Z,22.9
2017-09-05T22:44:04.788Z,22.9
2017-09-05T22:46:05.522Z,22.9
2017-09-05T22:48:05.219Z,22.9
2017-09-05T22:50:04.920Z,22.9
2017-09-05T22:52:08.271Z,22.9
2017-09-05T22:54:10.036Z,22.8
2017-09-05T22:56:04.772Z,22.8
2017-09-05T22:58:05.012Z,22.8
2017-09-05T23:00:07.324Z,22.8
2017-09-05T23:02:05.082Z,22.8
2017-09-05T23:04:04.748Z,22.8
2017-09-05T23:06:10.094Z,22.8
2017-09-05T23:08:07.372Z,22.8
2017-09-05T23:10:04.660Z,22.8
2017-09-05T23:12:04.899Z,22.8
2017-09-05T23:14:10.693Z,22.8
2017-09-05T23:16:05.411Z,22.8
2017-09-05T23:18:05.526Z,22.8
2017-09-05T23:20:07.755Z,22.8
2017-09-05T23:22:05.403Z,22.8
2017-09-05T23:24:05.125Z,22.8
2017-09-05T23:26:04.901Z,22.8
2017-09-05T23:28:04.932Z,22.8
2017-09-05T23:30:07.914Z,22.8
2017-09-05T23:32:05.657Z,22.8
2017-09-05T23:34:05.498Z,22.7
2017-09-05T23:36:07.255Z,22.7
2017-09-05T23:38:07.491Z,22.7
2017-09-05T23:40:04.778Z,22.7
2017-09-05T23:42:07.978Z,22.7
2017-09-05T23:44:04.698Z,22.8
2017-09-05T23:46:05.509Z,22.7
2017-09-05T23:48:05.314Z,22.7
2017-09-05T23:50:05.028Z,22.7
2017-09-05T23:52:07.575Z,22.7
2017-09-05T23:54:05.308Z,22.7
2017-09-05T23:56:10.091Z,22.7
2017-09-05T23:58:05.078Z,22.7
